Terminal Aerodrome Forecast
Issued by NWS

Home | Current Version | Previous Version | Text Only | Print | Product List | Glossary On
Versions: 1 2 3 4 5 6 7 8 9 10 11 12 13 14
338
FTAK31 PAJN 161533 AAA
TAFAWG
TAF AMD
PAWG 161533Z 1616/1712 10012KT 6SM -RA BR SCT025 OVC035
      WS020/15040KT
      TEMPO 1616/1620 12010G18KT 4SM RA BR BKN020 OVC030
     FM162100 14012KT 5SM -RA BR BKN015 OVC025
     FM170000 23012KT 6SM -SHRA BR SCT015 OVC035=

USA.gov is the U.S. government's official web portal to all federal, state and local government web resources and services.